Time;durP1;ratioP1;P1;durP2;ratioP2;P2;SDS_P1;SDS_P2;PMS_P1;PMS_P2;Temp;Humidity;BMP_temperature;BMP_pressure;BME280_temperature;BME280_humidity;BME280_pressure;Samples;Min_cycle;Max_cycle;Signal;HPM_P1;HPM_P2
2022/05/18 00:01:35;;;;;;;11.35;9.55;;;;;;;;;;5031444;28;20091;-75
2022/05/18 00:04:04;;;;;;;11.48;9.88;;;;;;;;;;5013003;28;20099;-75
2022/05/18 00:06:30;;;;;;;11.93;10.02;;;;;;;;;;5021392;28;20037;-74
2022/05/18 00:08:56;;;;;;;12.55;9.63;;;;;;;;;;5011302;28;20072;-75
2022/05/18 00:11:22;;;;;;;11.98;10.02;;;;;;;;;;5011600;28;20029;-76
2022/05/18 00:13:49;;;;;;;13.65;10.25;;;;;;;;;;5013997;28;20034;-76
2022/05/18 00:16:17;;;;;;;13.43;9.68;;;;;;;;;;5011674;28;20093;-76
2022/05/18 00:18:43;;;;;;;12.43;10.60;;;;;;;;;;5013927;28;20468;-76
2022/05/18 00:21:09;;;;;;;13.43;10.10;;;;;;;;;;5016497;28;20030;-76
2022/05/18 00:23:35;;;;;;;13.70;10.07;;;;;;;;;;5025719;28;20057;-76
2022/05/18 00:26:01;;;;;;;12.60;10.20;;;;;;;;;;5031235;28;20115;-76
2022/05/18 00:28:27;;;;;;;12.85;10.30;;;;;;;;;;5027064;28;20060;-76
2022/05/18 00:30:53;;;;;;;12.13;9.60;;;;;;;;;;5029410;28;20403;-76
2022/05/18 00:33:20;;;;;;;11.20;9.50;;;;;;;;;;5018721;28;20049;-76
2022/05/18 00:35:46;;;;;;;13.50;10.02;;;;;;;;;;5011266;28;20022;-76
2022/05/18 00:38:12;;;;;;;12.70;10.73;;;;;;;;;;5023052;28;20052;-75
2022/05/18 00:40:40;;;;;;;12.38;10.48;;;;;;;;;;5030554;28;20029;-76
2022/05/18 00:43:06;;;;;;;12.68;9.48;;;;;;;;;;5030473;28;20037;-76
2022/05/18 00:45:32;;;;;;;12.63;10.32;;;;;;;;;;5030196;28;20538;-76
2022/05/18 00:47:58;;;;;;;12.95;10.07;;;;;;;;;;5018544;28;20111;-76
2022/05/18 00:50:28;;;;;;;12.88;10.23;;;;;;;;;;5011623;28;20479;-76
2022/05/18 00:53:02;;;;;;;12.25;9.95;;;;;;;;;;5011475;28;20025;-76
2022/05/18 00:55:30;;;;;;;13.07;9.77;;;;;;;;;;5011215;28;20042;-76
2022/05/18 00:58:01;;;;;;;12.57;10.13;;;;;;;;;;5021909;28;20030;-76
2022/05/18 01:00:27;;;;;;;10.98;8.90;;;;;;;;;;5029840;28;20562;-76
2022/05/18 01:02:56;;;;;;;12.45;9.48;;;;;;;;;;5022586;28;20056;-75
2022/05/18 01:05:26;;;;;;;13.65;10.40;;;;;;;;;;5011333;28;20022;-75
2022/05/18 01:07:54;;;;;;;11.43;9.85;;;;;;;;;;5011473;28;20021;-74
2022/05/18 01:10:20;;;;;;;15.85;10.43;;;;;;;;;;5024328;28;20026;-75
2022/05/18 01:12:47;;;;;;;12.95;10.32;;;;;;;;;;5019182;28;20324;-75
2022/05/18 01:15:16;;;;;;;13.82;9.60;;;;;;;;;;5030877;28;20025;-76
2022/05/18 01:17:43;;;;;;;11.98;9.95;;;;;;;;;;5030401;28;20038;-76
2022/05/18 01:20:12;;;;;;;12.23;9.80;;;;;;;;;;5016678;28;20033;-75
2022/05/18 01:22:50;;;;;;;16.00;10.43;;;;;;;;;;5020815;28;20040;-75
2022/05/18 01:25:22;;;;;;;11.63;9.65;;;;;;;;;;5012338;28;20555;-75
2022/05/18 01:27:49;;;;;;;11.05;9.80;;;;;;;;;;5014539;28;20032;-75
2022/05/18 01:30:15;;;;;;;10.88;9.48;;;;;;;;;;5028790;28;20025;-75
2022/05/18 01:32:46;;;;;;;11.93;9.32;;;;;;;;;;5031467;28;20032;-75
2022/05/18 01:35:14;;;;;;;12.35;9.73;;;;;;;;;;5033862;28;20026;-75
2022/05/18 01:37:40;;;;;;;13.13;9.93;;;;;;;;;;5032847;28;20236;-76
2022/05/18 01:40:13;;;;;;;11.32;9.25;;;;;;;;;;5020796;28;20076;-76
2022/05/18 01:42:39;;;;;;;10.90;9.10;;;;;;;;;;5017979;28;20087;-76
2022/05/18 01:45:06;;;;;;;12.82;9.75;;;;;;;;;;5032565;28;20105;-75
2022/05/18 01:47:39;;;;;;;10.50;9.40;;;;;;;;;;5014505;28;20038;-76
2022/05/18 01:50:07;;;;;;;14.05;10.35;;;;;;;;;;5017962;28;20030;-76
2022/05/18 01:52:33;;;;;;;14.88;10.85;;;;;;;;;;5029379;28;20026;-76
2022/05/18 01:54:59;;;;;;;11.13;9.60;;;;;;;;;;5022866;28;20495;-76
2022/05/18 01:57:26;;;;;;;12.38;9.98;;;;;;;;;;5032723;28;20055;-76
2022/05/18 01:59:52;;;;;;;12.45;10.60;;;;;;;;;;5032896;28;20030;-76
2022/05/18 02:02:18;;;;;;;13.45;10.07;;;;;;;;;;5017290;28;20494;-76
2022/05/18 02:04:44;;;;;;;13.00;10.35;;;;;;;;;;5013707;28;20573;-76
2022/05/18 02:07:12;;;;;;;12.30;10.27;;;;;;;;;;5019713;28;20037;-75
2022/05/18 02:09:38;;;;;;;11.60;9.93;;;;;;;;;;5033338;28;20041;-75
2022/05/18 02:12:05;;;;;;;12.68;10.25;;;;;;;;;;5019510;28;20108;-74
2022/05/18 02:14:31;;;;;;;12.27;10.43;;;;;;;;;;5015038;28;20076;-74
2022/05/18 02:16:57;;;;;;;13.32;10.93;;;;;;;;;;5021157;28;20510;-75
2022/05/18 02:19:23;;;;;;;13.73;10.10;;;;;;;;;;5013481;28;20052;-74
2022/05/18 02:21:50;;;;;;;11.80;10.02;;;;;;;;;;5019639;28;20503;-74
2022/05/18 02:24:16;;;;;;;13.00;10.10;;;;;;;;;;5028606;28;20057;-75
2022/05/18 02:26:42;;;;;;;12.52;9.50;;;;;;;;;;5031026;28;20021;-75
2022/05/18 02:29:08;;;;;;;10.57;9.07;;;;;;;;;;5013087;28;20037;-76
2022/05/18 02:31:35;;;;;;;12.10;9.30;;;;;;;;;;5021880;28;20394;-75
2022/05/18 02:34:01;;;;;;;11.73;9.35;;;;;;;;;;5031657;28;20025;-75
2022/05/18 02:36:27;;;;;;;12.60;9.75;;;;;;;;;;5032863;28;20422;-75
2022/05/18 02:38:53;;;;;;;13.50;10.25;;;;;;;;;;5029194;28;20075;-75
2022/05/18 02:41:19;;;;;;;11.95;9.45;;;;;;;;;;5025762;28;20345;-76
2022/05/18 02:43:46;;;;;;;12.65;9.30;;;;;;;;;;5022602;28;20033;-76
2022/05/18 02:46:17;;;;;;;11.57;9.38;;;;;;;;;;5032286;28;20052;-76
2022/05/18 02:48:43;;;;;;;13.13;9.23;;;;;;;;;;5028800;28;20113;-75
2022/05/18 02:51:10;;;;;;;12.18;9.10;;;;;;;;;;5020892;28;20434;-75
2022/05/18 02:53:36;;;;;;;12.13;9.63;;;;;;;;;;5030426;28;20032;-75
2022/05/18 02:56:06;;;;;;;12.88;9.18;;;;;;;;;;5032440;28;20040;-75
2022/05/18 02:58:51;;;;;;;13.25;10.52;;;;;;;;;;5031219;28;20053;-75
2022/05/18 03:01:19;;;;;;;14.15;10.43;;;;;;;;;;5026358;28;20033;-75
2022/05/18 03:03:46;;;;;;;10.52;9.30;;;;;;;;;;5011847;28;20037;-75
2022/05/18 03:06:13;;;;;;;13.07;10.10;;;;;;;;;;5023728;28;20510;-75
2022/05/18 03:08:40;;;;;;;11.15;9.55;;;;;;;;;;5029104;28;20056;-75
2022/05/18 03:11:06;;;;;;;11.40;9.07;;;;;;;;;;5016507;28;20021;-75
2022/05/18 03:13:32;;;;;;;12.65;9.48;;;;;;;;;;5032073;28;20036;-76
2022/05/18 03:15:59;;;;;;;11.77;9.80;;;;;;;;;;5031618;28;20380;-74
2022/05/18 03:18:25;;;;;;;13.07;10.05;;;;;;;;;;5031413;28;20444;-76
2022/05/18 03:23:36;;;;;;;12.32;9.40;;;;;;;;;;5014456;28;20099;-75
2022/05/18 03:26:10;;;;;;;13.60;10.00;;;;;;;;;;5020812;28;20071;-75
2022/05/18 03:28:36;;;;;;;12.18;10.35;;;;;;;;;;5031764;28;20033;-76
2022/05/18 03:31:03;;;;;;;13.82;10.95;;;;;;;;;;5026116;28;20021;-75
2022/05/18 03:33:29;;;;;;;12.57;10.80;;;;;;;;;;5019866;28;20032;-75
2022/05/18 03:35:55;;;;;;;13.52;10.52;;;;;;;;;;5031736;28;20104;-75
2022/05/18 03:38:21;;;;;;;13.15;10.23;;;;;;;;;;5029708;28;20037;-74
2022/05/18 03:40:48;;;;;;;15.30;12.00;;;;;;;;;;5030267;28;20127;-74
2022/05/18 03:43:14;;;;;;;15.15;11.55;;;;;;;;;;5031147;28;20032;-74
2022/05/18 03:45:40;;;;;;;12.32;9.95;;;;;;;;;;5031582;28;20053;-75
2022/05/18 03:48:08;;;;;;;14.18;10.35;;;;;;;;;;5029510;28;20410;-75
2022/05/18 03:50:36;;;;;;;12.50;10.35;;;;;;;;;;5025873;28;20022;-75
2022/05/18 03:53:02;;;;;;;14.13;10.48;;;;;;;;;;5011744;28;20080;-75
2022/05/18 03:55:28;;;;;;;12.40;10.88;;;;;;;;;;5018774;28;20048;-76
2022/05/18 03:57:55;;;;;;;11.63;9.90;;;;;;;;;;5030622;28;20491;-76
2022/05/18 04:00:21;;;;;;;12.98;10.90;;;;;;;;;;5023597;28;20025;-75
2022/05/18 04:02:50;;;;;;;13.68;9.93;;;;;;;;;;5019006;28;20029;-74
2022/05/18 04:05:17;;;;;;;15.75;11.20;;;;;;;;;;5012358;28;20089;-76
2022/05/18 04:07:43;;;;;;;14.45;10.20;;;;;;;;;;5012877;28;20033;-76
2022/05/18 04:10:09;;;;;;;13.57;10.18;;;;;;;;;;5021187;28;20574;-76
2022/05/18 04:12:36;;;;;;;12.43;9.60;;;;;;;;;;5020453;28;20045;-76
2022/05/18 04:15:02;;;;;;;13.18;10.75;;;;;;;;;;5019626;28;20028;-75
2022/05/18 04:17:28;;;;;;;12.13;10.32;;;;;;;;;;5023203;28;20025;-75
2022/05/18 04:19:54;;;;;;;13.07;10.80;;;;;;;;;;5017023;28;20049;-75
2022/05/18 04:22:21;;;;;;;12.88;10.18;;;;;;;;;;5019219;28;20034;-75
2022/05/18 04:24:47;;;;;;;13.90;11.02;;;;;;;;;;5017640;28;20052;-75
2022/05/18 04:27:13;;;;;;;13.65;10.65;;;;;;;;;;5022584;28;20021;-75
2022/05/18 04:29:39;;;;;;;13.48;11.13;;;;;;;;;;5026280;28;20116;-75
2022/05/18 04:32:06;;;;;;;13.70;11.20;;;;;;;;;;5014764;28;20030;-75
2022/05/18 04:34:32;;;;;;;13.25;9.52;;;;;;;;;;5031151;28;20483;-75
2022/05/18 04:36:58;;;;;;;14.30;10.65;;;;;;;;;;5019989;28;20068;-75
2022/05/18 04:39:24;;;;;;;13.23;10.20;;;;;;;;;;5022029;28;20029;-75
2022/05/18 04:41:50;;;;;;;12.13;10.18;;;;;;;;;;5018762;28;20025;-75
2022/05/18 04:44:16;;;;;;;13.77;10.88;;;;;;;;;;5015581;28;20108;-75
2022/05/18 04:46:42;;;;;;;14.32;11.77;;;;;;;;;;5029994;28;20108;-76
2022/05/18 04:49:10;;;;;;;13.15;10.18;;;;;;;;;;5017436;28;20034;-76
2022/05/18 04:51:36;;;;;;;12.52;10.57;;;;;;;;;;5010791;28;20029;-76
2022/05/18 04:54:02;;;;;;;15.15;11.00;;;;;;;;;;5021941;28;20407;-76
2022/05/18 04:56:28;;;;;;;15.18;10.55;;;;;;;;;;5015248;28;20515;-76
2022/05/18 04:58:56;;;;;;;12.70;9.32;;;;;;;;;;5023149;28;20113;-75
2022/05/18 05:01:24;;;;;;;13.45;10.15;;;;;;;;;;5021781;28;20506;-75
2022/05/18 05:03:50;;;;;;;11.48;10.02;;;;;;;;;;5022363;28;20068;-74
2022/05/18 05:06:16;;;;;;;10.38;8.88;;;;;;;;;;5020641;28;20061;-75
2022/05/18 05:08:42;;;;;;;12.95;10.18;;;;;;;;;;5025507;28;20037;-74
2022/05/18 05:11:09;;;;;;;10.95;9.25;;;;;;;;;;5029622;28;20030;-75
2022/05/18 05:13:35;;;;;;;14.60;9.55;;;;;;;;;;5028021;28;20062;-75
2022/05/18 05:16:03;;;;;;;12.68;9.77;;;;;;;;;;5016028;28;20030;-76
2022/05/18 05:18:29;;;;;;;15.85;10.57;;;;;;;;;;5021703;28;20103;-75
2022/05/18 05:20:55;;;;;;;12.38;9.00;;;;;;;;;;5029412;28;20117;-75
2022/05/18 05:23:24;;;;;;;14.40;9.77;;;;;;;;;;5026399;28;20034;-75
2022/05/18 05:25:50;;;;;;;13.55;9.60;;;;;;;;;;5028392;28;20032;-75
2022/05/18 05:28:16;;;;;;;14.75;9.25;;;;;;;;;;5028734;28;20391;-75
2022/05/18 05:30:42;;;;;;;10.15;8.63;;;;;;;;;;5022933;28;20026;-75
2022/05/18 05:33:08;;;;;;;11.98;9.85;;;;;;;;;;5021238;28;20076;-75
2022/05/18 05:35:34;;;;;;;12.57;9.13;;;;;;;;;;5030902;28;20029;-76
2022/05/18 05:38:00;;;;;;;11.80;9.18;;;;;;;;;;5020168;28;20045;-76
2022/05/18 05:40:27;;;;;;;10.05;8.60;;;;;;;;;;5029394;28;20476;-76
2022/05/18 05:42:53;;;;;;;11.88;8.95;;;;;;;;;;5017546;28;20022;-76
2022/05/18 05:45:19;;;;;;;11.50;9.40;;;;;;;;;;5033749;28;20025;-76
2022/05/18 05:47:45;;;;;;;13.55;9.00;;;;;;;;;;5030849;28;20411;-76
2022/05/18 05:50:13;;;;;;;10.85;8.55;;;;;;;;;;5029225;28;20038;-76
2022/05/18 05:52:39;;;;;;;11.43;8.70;;;;;;;;;;5033276;28;20487;-76
2022/05/18 05:55:06;;;;;;;11.05;8.48;;;;;;;;;;5021332;28;20025;-75
2022/05/18 05:57:32;;;;;;;10.40;8.40;;;;;;;;;;5024000;28;20045;-76
2022/05/18 06:00:00;;;;;;;10.63;7.93;;;;;;;;;;5013639;28;20061;-76
2022/05/18 06:02:26;;;;;;;10.98;8.70;;;;;;;;;;5013771;28;20026;-75
2022/05/18 06:04:52;;;;;;;12.65;8.93;;;;;;;;;;5027365;28;20087;-75
2022/05/18 06:07:18;;;;;;;11.23;8.20;;;;;;;;;;5033192;28;20030;-75
2022/05/18 06:09:44;;;;;;;11.00;8.82;;;;;;;;;;5033135;28;20062;-75
2022/05/18 06:12:11;;;;;;;12.48;8.52;;;;;;;;;;5023816;28;20022;-75
2022/05/18 06:14:37;;;;;;;11.82;8.45;;;;;;;;;;5013157;28;20030;-75
2022/05/18 06:17:03;;;;;;;11.70;8.32;;;;;;;;;;5030623;28;20030;-75
2022/05/18 06:19:31;;;;;;;10.75;8.80;;;;;;;;;;5033371;28;20049;-75
2022/05/18 06:21:57;;;;;;;11.73;8.20;;;;;;;;;;5032830;28;20021;-75
2022/05/18 06:24:23;;;;;;;10.27;8.18;;;;;;;;;;5032825;28;20490;-75
2022/05/18 06:26:49;;;;;;;10.48;8.50;;;;;;;;;;5017322;28;20121;-75
2022/05/18 06:29:15;;;;;;;11.85;8.50;;;;;;;;;;5013001;28;20088;-76
2022/05/18 06:31:41;;;;;;;9.45;8.02;;;;;;;;;;5013317;28;20025;-77
2022/05/18 06:34:07;;;;;;;11.02;8.80;;;;;;;;;;5012957;28;20064;-77
2022/05/18 06:36:34;;;;;;;12.50;7.78;;;;;;;;;;5026076;28;20032;-77
2022/05/18 06:39:00;;;;;;;9.93;7.82;;;;;;;;;;5032977;28;20025;-77
2022/05/18 06:41:26;;;;;;;9.45;7.80;;;;;;;;;;5013489;28;20092;-77
2022/05/18 06:43:52;;;;;;;8.93;7.50;;;;;;;;;;5012948;28;20025;-76
2022/05/18 06:46:18;;;;;;;13.00;8.30;;;;;;;;;;5022986;28;20500;-76
2022/05/18 06:48:44;;;;;;;11.45;8.07;;;;;;;;;;5032526;28;20033;-77
2022/05/18 06:51:10;;;;;;;12.77;7.80;;;;;;;;;;5032521;28;20035;-76
2022/05/18 06:53:37;;;;;;;9.77;7.43;;;;;;;;;;5026111;28;20057;-77
2022/05/18 06:56:04;;;;;;;10.48;7.93;;;;;;;;;;5021372;28;20022;-76
2022/05/18 06:58:30;;;;;;;11.05;8.07;;;;;;;;;;5032488;28;20514;-76
2022/05/18 07:00:56;;;;;;;9.85;8.10;;;;;;;;;;5013688;28;20030;-77
2022/05/18 07:03:22;;;;;;;15.80;7.82;;;;;;;;;;5012479;28;20033;-76
2022/05/18 07:05:48;;;;;;;11.70;7.88;;;;;;;;;;5012679;28;20029;-76
2022/05/18 07:08:14;;;;;;;13.07;8.27;;;;;;;;;;5017595;28;20398;-76
2022/05/18 07:10:40;;;;;;;10.63;8.45;;;;;;;;;;5027719;28;20080;-76
2022/05/18 07:13:07;;;;;;;9.40;7.60;;;;;;;;;;5020521;28;20037;-77
2022/05/18 07:15:33;;;;;;;10.65;7.78;;;;;;;;;;5020412;28;20028;-76
2022/05/18 07:17:59;;;;;;;9.65;7.10;;;;;;;;;;5016178;28;20054;-76
2022/05/18 07:20:27;;;;;;;9.40;7.70;;;;;;;;;;5020821;28;20067;-76
2022/05/18 07:22:53;;;;;;;12.88;7.15;;;;;;;;;;5028102;28;20032;-77
2022/05/18 07:25:19;;;;;;;10.38;6.88;;;;;;;;;;5030766;28;20113;-76
2022/05/18 07:27:45;;;;;;;10.95;8.00;;;;;;;;;;5023271;28;20484;-77
2022/05/18 07:30:13;;;;;;;10.25;6.50;;;;;;;;;;5011311;28;20451;-77
2022/05/18 07:32:39;;;;;;;8.75;5.72;;;;;;;;;;5010442;28;20026;-76
2022/05/18 07:35:05;;;;;;;9.18;5.85;;;;;;;;;;5028020;28;20034;-75
2022/05/18 07:37:31;;;;;;;7.78;4.75;;;;;;;;;;5025470;28;20030;-75
2022/05/18 07:39:57;;;;;;;7.28;4.88;;;;;;;;;;5012130;28;20034;-77
2022/05/18 07:42:23;;;;;;;8.60;5.20;;;;;;;;;;5011910;28;20109;-77
2022/05/18 07:44:49;;;;;;;8.73;4.90;;;;;;;;;;5011662;28;20100;-76
2022/05/18 07:47:15;;;;;;;7.63;4.75;;;;;;;;;;5011928;28;20030;-76
2022/05/18 07:49:42;;;;;;;6.10;3.78;;;;;;;;;;5012142;28;20041;-76
2022/05/18 07:52:09;;;;;;;6.72;3.78;;;;;;;;;;5012127;28;20160;-76
2022/05/18 07:54:35;;;;;;;9.38;4.32;;;;;;;;;;5011558;28;20025;-76
2022/05/18 07:57:01;;;;;;;6.80;4.10;;;;;;;;;;5030258;28;20029;-77
2022/05/18 07:59:27;;;;;;;7.88;4.00;;;;;;;;;;5017132;28;20038;-77
2022/05/18 08:01:53;;;;;;;5.40;3.50;;;;;;;;;;5026204;28;20083;-76
2022/05/18 08:04:19;;;;;;;8.95;3.60;;;;;;;;;;5031261;28;20026;-77
2022/05/18 08:06:45;;;;;;;7.00;3.22;;;;;;;;;;5014943;28;20026;-76
2022/05/18 08:09:11;;;;;;;5.10;3.03;;;;;;;;;;5011790;28;20118;-75
2022/05/18 08:17:07;;;;;;;7.07;3.10;;;;;;;;;;5029998;28;20115;-77
2022/05/18 08:19:33;;;;;;;6.82;3.55;;;;;;;;;;5030334;28;20446;-76
2022/05/18 08:21:59;;;;;;;8.73;3.80;;;;;;;;;;5011461;28;20487;-76
2022/05/18 08:24:25;;;;;;;5.47;2.80;;;;;;;;;;5011583;28;20026;-76
2022/05/18 08:26:51;;;;;;;5.75;2.30;;;;;;;;;;5025597;28;20042;-77
2022/05/18 08:29:17;;;;;;;5.93;2.50;;;;;;;;;;5011628;28;20036;-76
2022/05/18 08:31:43;;;;;;;4.75;2.30;;;;;;;;;;5015432;28;20477;-76
2022/05/18 08:34:09;;;;;;;5.80;2.03;;;;;;;;;;5025419;28;20392;-76
2022/05/18 08:36:35;;;;;;;5.35;1.90;;;;;;;;;;5014075;28;20018;-76
2022/05/18 08:39:01;;;;;;;4.93;1.70;;;;;;;;;;5015260;28;20103;-76
2022/05/18 08:41:29;;;;;;;4.55;1.83;;;;;;;;;;5015094;28;20034;-76
2022/05/18 08:43:58;;;;;;;5.32;2.10;;;;;;;;;;5018083;28;20105;-76
2022/05/18 08:46:43;;;;;;;5.07;2.08;;;;;;;;;;5018285;28;20660;-77
2022/05/18 08:49:09;;;;;;;5.07;2.33;;;;;;;;;;5030568;28;20087;-76
2022/05/18 08:51:39;;;;;;;5.03;2.30;;;;;;;;;;5034905;28;20026;-77
2022/05/18 08:54:18;;;;;;;4.88;2.15;;;;;;;;;;5034627;28;20014;-77
2022/05/18 08:56:44;;;;;;;6.53;2.55;;;;;;;;;;5016606;28;20028;-77
2022/05/18 08:59:12;;;;;;;5.22;2.50;;;;;;;;;;5014941;28;20104;-75
2022/05/18 09:01:40;;;;;;;4.72;2.30;;;;;;;;;;5015037;28;20073;-77
2022/05/18 09:04:13;;;;;;;5.03;2.42;;;;;;;;;;5032243;28;20394;-76
2022/05/18 09:06:47;;;;;;;5.93;2.45;;;;;;;;;;5017595;28;20129;-77
2022/05/18 09:12:17;;;;;;;6.00;2.33;;;;;;;;;;5017513;28;20034;-76
2022/05/18 09:14:44;;;;;;;4.90;2.50;;;;;;;;;;5016469;28;20049;-77
2022/05/18 09:17:10;;;;;;;4.32;2.38;;;;;;;;;;5030637;28;20415;-76
2022/05/18 09:19:36;;;;;;;8.50;2.80;;;;;;;;;;5024107;28;20096;-76
2022/05/18 09:22:21;;;;;;;7.13;2.60;;;;;;;;;;5028571;28;20407;-77
2022/05/18 09:24:49;;;;;;;4.55;2.30;;;;;;;;;;5034439;28;20026;-76
2022/05/18 09:27:33;;;;;;;5.57;2.47;;;;;;;;;;5027336;28;20411;-77
2022/05/18 09:30:19;;;;;;;4.78;2.22;;;;;;;;;;5016753;28;20033;-76
2022/05/18 09:33:11;;;;;;;4.47;1.98;;;;;;;;;;5033313;28;20017;-77
2022/05/18 09:35:43;;;;;;;4.65;1.88;;;;;;;;;;5040707;28;20029;-77
2022/05/18 09:38:13;;;;;;;6.07;2.17;;;;;;;;;;5019846;28;20488;-76
2022/05/18 09:40:41;;;;;;;4.60;2.25;;;;;;;;;;5014959;28;20049;-77
2022/05/18 09:43:14;;;;;;;5.07;2.08;;;;;;;;;;5014223;28;20041;-77
2022/05/18 09:45:43;;;;;;;5.60;2.20;;;;;;;;;;5024626;28;20388;-77
2022/05/18 09:48:14;;;;;;;6.45;2.33;;;;;;;;;;5032228;28;20045;-78
2022/05/18 09:50:42;;;;;;;5.07;2.42;;;;;;;;;;5024912;28;20546;-77
2022/05/18 09:53:08;;;;;;;4.95;2.17;;;;;;;;;;5016101;28;20041;-76
2022/05/18 09:55:34;;;;;;;5.68;2.50;;;;;;;;;;5028020;28;20028;-76
2022/05/18 09:58:09;;;;;;;5.13;2.33;;;;;;;;;;5030229;28;20499;-77
2022/05/18 10:00:37;;;;;;;4.20;2.22;;;;;;;;;;5021391;28;20029;-77
2022/05/18 10:08:58;;;;;;;5.43;2.38;;;;;;;;;;5013792;28;20537;-75
2022/05/18 10:11:26;;;;;;;5.03;2.10;;;;;;;;;;5015813;28;20044;-77
2022/05/18 10:14:00;;;;;;;4.43;2.08;;;;;;;;;;5014113;28;20380;-77
2022/05/18 10:16:47;;;;;;;5.75;2.20;;;;;;;;;;5019460;28;20029;-76
2022/05/18 10:19:33;;;;;;;4.10;1.95;;;;;;;;;;5013203;28;20057;-76
2022/05/18 10:22:04;;;;;;;5.30;1.98;;;;;;;;;;5013605;28;20197;-77
2022/05/18 10:24:37;;;;;;;4.65;2.03;;;;;;;;;;5016406;28;20395;-74
2022/05/18 10:27:04;;;;;;;;;;;;;;;;;;5017001;28;20432;-75
2022/05/18 10:29:30;;;;;;;4.00;1.73;;;;;;;;;;5027147;28;19929;-75
2022/05/18 10:32:09;;;;;;;5.82;1.80;;;;;;;;;;5013224;28;20117;-75
2022/05/18 10:34:43;;;;;;;5.10;1.90;;;;;;;;;;5013502;28;20122;-75
2022/05/18 10:37:10;;;;;;;5.10;1.90;;;;;;;;;;5020285;28;20135;-75
2022/05/18 10:39:41;;;;;;;3.95;1.70;;;;;;;;;;5024853;28;20033;-75
2022/05/18 10:42:28;;;;;;;5.82;1.88;;;;;;;;;;5027282;28;20029;-75
2022/05/18 10:44:55;;;;;;;4.00;1.80;;;;;;;;;;5024648;28;20087;-78
2022/05/18 10:47:27;;;;;;;4.10;1.85;;;;;;;;;;5035830;28;20479;-80
2022/05/18 10:50:14;;;;;;;5.88;2.40;;;;;;;;;;5021581;28;20053;-81
2022/05/18 10:52:40;;;;;;;3.80;1.90;;;;;;;;;;5025951;28;20097;-80
2022/05/18 10:55:14;;;;;;;4.28;1.60;;;;;;;;;;5038756;28;20022;-79
2022/05/18 10:57:41;;;;;;;5.35;1.77;;;;;;;;;;5023443;28;20041;-80
2022/05/18 11:00:17;;;;;;;4.50;2.00;;;;;;;;;;5021549;28;20404;-80
2022/05/18 11:02:48;;;;;;;4.30;1.80;;;;;;;;;;5027323;28;20256;-83
2022/05/18 11:05:22;;;;;;;4.30;1.70;;;;;;;;;;5029781;28;20040;-79
2022/05/18 11:07:49;;;;;;;4.82;1.70;;;;;;;;;;5042861;28;20072;-80
2022/05/18 11:10:15;;;;;;;4.13;1.60;;;;;;;;;;5042971;28;20112;-80
2022/05/18 11:13:03;;;;;;;3.67;1.67;;;;;;;;;;5036627;28;20017;-80
2022/05/18 11:15:38;;;;;;;5.88;1.77;;;;;;;;;;5037365;28;20041;-79
2022/05/18 11:18:19;;;;;;;4.15;1.60;;;;;;;;;;5032593;28;20526;-79
2022/05/18 11:20:51;;;;;;;3.72;1.55;;;;;;;;;;5028530;28;20325;-79
2022/05/18 11:23:20;;;;;;;3.53;1.65;;;;;;;;;;5033941;28;20109;-80
2022/05/18 11:25:58;;;;;;;3.65;1.70;;;;;;;;;;5031396;28;20061;-83
2022/05/18 11:28:24;;;;;;;4.47;1.67;;;;;;;;;;5026694;28;20052;-80
2022/05/18 11:30:53;;;;;;;7.45;1.88;;;;;;;;;;5029032;28;20061;-79
2022/05/18 11:33:32;;;;;;;3.97;1.40;;;;;;;;;;5037471;28;20033;-79
2022/05/18 11:36:01;;;;;;;3.03;1.20;;;;;;;;;;5036730;28;20100;-79
2022/05/18 11:38:46;;;;;;;2.58;1.10;;;;;;;;;;5019387;28;20141;-80
2022/05/18 11:41:14;;;;;;;3.60;1.10;;;;;;;;;;5018948;28;20105;-81
2022/05/18 11:43:59;;;;;;;2.80;1.10;;;;;;;;;;5017182;28;20113;-81
2022/05/18 11:46:34;;;;;;;2.60;1.10;;;;;;;;;;5027678;28;20052;-80
2022/05/18 11:49:00;;;;;;;2.45;1.00;;;;;;;;;;5033850;28;20025;-80
2022/05/18 11:51:35;;;;;;;4.03;1.40;;;;;;;;;;5034776;28;20549;-80
2022/05/18 11:54:04;;;;;;;3.33;1.27;;;;;;;;;;5015908;28;20503;-80
2022/05/18 11:56:33;;;;;;;3.92;1.40;;;;;;;;;;5017263;28;20033;-81
2022/05/18 11:59:18;;;;;;;5.25;1.45;;;;;;;;;;5021144;28;20109;-80
2022/05/18 12:02:05;;;;;;;3.85;1.40;;;;;;;;;;5025437;28;20029;-80
2022/05/18 12:04:51;;;;;;;4.15;1.25;;;;;;;;;;5057748;28;20061;-79
2022/05/18 12:07:35;;;;;;;3.60;1.60;;;;;;;;;;5038766;28;20021;-79
2022/05/18 12:10:01;;;;;;;3.10;1.10;;;;;;;;;;5020742;28;20042;-80
2022/05/18 12:12:40;;;;;;;4.35;1.42;;;;;;;;;;5024021;28;20030;-80
2022/05/18 12:15:14;;;;;;;3.33;1.30;;;;;;;;;;5032961;28;20028;-81
2022/05/18 12:17:47;;;;;;;5.13;1.30;;;;;;;;;;5035351;28;20400;-80
2022/05/18 12:20:19;;;;;;;4.88;1.30;;;;;;;;;;5016307;28;20108;-80
2022/05/18 12:22:51;;;;;;;4.72;1.13;;;;;;;;;;5028836;28;20107;-80
2022/05/18 12:25:20;;;;;;;3.67;1.17;;;;;;;;;;5016177;28;20094;-80
2022/05/18 12:27:46;;;;;;;2.80;1.10;;;;;;;;;;5027435;28;20431;-80
2022/05/18 12:30:14;;;;;;;3.17;1.20;;;;;;;;;;5015768;28;20034;-81
2022/05/18 12:32:41;;;;;;;3.47;1.25;;;;;;;;;;5016716;28;20438;-80
2022/05/18 12:35:13;;;;;;;2.95;1.25;;;;;;;;;;5025690;28;20411;-80
2022/05/18 12:37:57;;;;;;;3.90;1.20;;;;;;;;;;5035790;28;20021;-80
2022/05/18 12:40:30;;;;;;;3.25;1.20;;;;;;;;;;5035625;28;20271;-80
2022/05/18 12:42:58;;;;;;;4.50;1.02;;;;;;;;;;5023268;28;20022;-80
2022/05/18 12:45:27;;;;;;;3.13;1.30;;;;;;;;;;5016994;28;20042;-80
2022/05/18 12:48:07;;;;;;;4.53;1.10;;;;;;;;;;5014256;28;20033;-81
2022/05/18 12:50:37;;;;;;;3.10;1.00;;;;;;;;;;5015983;28;20364;-81
2022/05/18 12:53:11;;;;;;;2.92;1.20;;;;;;;;;;5014308;28;20029;-80
2022/05/18 12:55:45;;;;;;;4.05;1.20;;;;;;;;;;5016102;28;20030;-80
2022/05/18 12:58:11;;;;;;;3.05;1.00;;;;;;;;;;5015816;28;20026;-80
2022/05/18 13:00:39;;;;;;;4.45;1.23;;;;;;;;;;5015878;28;20110;-80
2022/05/18 13:03:08;;;;;;;4.05;1.13;;;;;;;;;;5015822;28;20026;-79
2022/05/18 13:05:40;;;;;;;2.50;1.08;;;;;;;;;;5016277;28;20018;-80
2022/05/18 13:08:09;;;;;;;3.43;1.17;;;;;;;;;;5025284;28;20079;-79
2022/05/18 13:10:37;;;;;;;2.88;1.00;;;;;;;;;;5035433;28;20313;-79
2022/05/18 13:13:05;;;;;;;2.75;0.90;;;;;;;;;;5018841;28;20029;-80
2022/05/18 13:15:52;;;;;;;2.80;1.08;;;;;;;;;;5016201;28;20037;-81
2022/05/18 13:18:20;;;;;;;2.92;1.05;;;;;;;;;;5019358;28;20042;-81
2022/05/18 13:20:46;;;;;;;3.67;1.00;;;;;;;;;;5015238;28;20098;-79
2022/05/18 13:23:24;;;;;;;2.95;1.00;;;;;;;;;;5018836;28;20496;-80
2022/05/18 13:25:59;;;;;;;6.32;1.10;;;;;;;;;;5019863;28;20045;-80
2022/05/18 13:28:26;;;;;;;3.97;1.10;;;;;;;;;;5038862;28;20057;-80
2022/05/18 13:30:56;;;;;;;3.05;0.82;;;;;;;;;;5038384;28;20087;-80
2022/05/18 13:33:24;;;;;;;2.65;0.98;;;;;;;;;;5025387;28;20026;-81
2022/05/18 13:35:50;;;;;;;4.10;1.13;;;;;;;;;;5019317;28;20025;-80
2022/05/18 13:38:26;;;;;;;2.65;0.98;;;;;;;;;;5018677;28;20040;-81
2022/05/18 13:41:18;;;;;;;2.92;1.10;;;;;;;;;;5022733;28;20052;-79
2022/05/18 13:43:45;;;;;;;3.03;1.13;;;;;;;;;;5025426;28;20038;-80
2022/05/18 13:46:11;;;;;;;2.75;1.10;;;;;;;;;;5028206;28;20502;-81
2022/05/18 13:48:37;;;;;;;3.55;1.30;;;;;;;;;;5038599;28;20022;-81
2022/05/18 13:51:05;;;;;;;2.88;1.27;;;;;;;;;;5024221;28;20022;-80
2022/05/18 13:53:34;;;;;;;3.10;1.20;;;;;;;;;;5018762;28;20529;-80
2022/05/18 13:56:10;;;;;;;3.72;1.27;;;;;;;;;;5030370;28;20090;-80
2022/05/18 13:58:40;;;;;;;3.45;1.10;;;;;;;;;;5035445;28;20021;-80
2022/05/18 14:01:09;;;;;;;3.65;1.10;;;;;;;;;;5029147;28;20022;-80
2022/05/18 14:03:37;;;;;;;4.50;1.30;;;;;;;;;;5042268;28;20038;-80
2022/05/18 14:06:05;;;;;;;3.63;1.00;;;;;;;;;;5025329;28;20057;-80
2022/05/18 14:08:35;;;;;;;3.67;1.10;;;;;;;;;;5029493;28;20029;-80
2022/05/18 14:11:03;;;;;;;2.47;0.88;;;;;;;;;;5027737;28;20022;-80
2022/05/18 14:13:30;;;;;;;3.90;0.95;;;;;;;;;;5026542;28;20021;-79
2022/05/18 14:15:56;;;;;;;2.65;1.00;;;;;;;;;;5028536;28;20021;-80
2022/05/18 14:18:27;;;;;;;4.13;1.10;;;;;;;;;;5035574;28;20037;-80
2022/05/18 14:20:57;;;;;;;3.25;1.02;;;;;;;;;;5038147;28;20029;-81
2022/05/18 14:23:49;;;;;;;2.58;0.90;;;;;;;;;;5040626;28;20052;-80
2022/05/18 14:26:16;;;;;;;3.95;1.30;;;;;;;;;;5040312;28;20069;-80
2022/05/18 14:28:43;;;;;;;4.00;1.20;;;;;;;;;;5038753;28;20392;-80
2022/05/18 14:31:11;;;;;;;5.00;1.20;;;;;;;;;;5030295;28;20026;-80
2022/05/18 14:33:37;;;;;;;4.10;1.10;;;;;;;;;;5031812;28;20025;-80
2022/05/18 14:36:06;;;;;;;3.13;1.30;;;;;;;;;;5024167;28;20093;-79
2022/05/18 14:38:34;;;;;;;3.40;1.20;;;;;;;;;;5037292;28;20084;-80
2022/05/18 14:41:03;;;;;;;4.97;1.30;;;;;;;;;;5039837;28;20033;-79
2022/05/18 14:43:32;;;;;;;3.13;1.10;;;;;;;;;;5037269;28;20403;-79
2022/05/18 14:46:06;;;;;;;3.08;1.02;;;;;;;;;;5033036;28;20049;-79
2022/05/18 14:48:44;;;;;;;2.92;1.05;;;;;;;;;;5046658;28;20026;-79
2022/05/18 14:51:19;;;;;;;3.75;1.20;;;;;;;;;;5044097;28;20029;-79
2022/05/18 14:53:48;;;;;;;2.70;1.02;;;;;;;;;;5030136;28;20037;-80
2022/05/18 14:56:14;;;;;;;4.38;1.17;;;;;;;;;;5025276;28;20026;-80
2022/05/18 14:58:47;;;;;;;2.90;1.25;;;;;;;;;;5028451;28;20109;-80
2022/05/18 15:01:26;;;;;;;5.13;1.30;;;;;;;;;;5019699;28;20022;-80